createdAt,value
2018-12-12T00:01:09.808Z,21.52
2018-12-12T00:03:38.645Z,18.70
2018-12-12T00:06:07.469Z,19.30
2018-12-12T00:08:36.288Z,17.63
2018-12-12T00:11:05.130Z,18.47
2018-12-12T00:13:33.961Z,21.17
2018-12-12T00:16:03.530Z,19.23
2018-12-12T00:18:32.365Z,17.77
2018-12-12T00:21:01.945Z,17.60
2018-12-12T00:23:30.781Z,18.37
2018-12-12T00:25:59.630Z,18.23
2018-12-12T00:28:28.451Z,18.67
2018-12-12T00:30:57.280Z,18.87
2018-12-12T00:33:26.109Z,18.57
2018-12-12T00:35:54.958Z,19.10
2018-12-12T00:38:23.787Z,20.70
2018-12-12T00:40:53.368Z,20.87
2018-12-12T00:43:22.201Z,21.37
2018-12-12T00:45:51.044Z,20.17
2018-12-12T00:48:19.879Z,20.30
2018-12-12T00:50:48.708Z,18.43
2018-12-12T00:53:17.548Z,20.57
2018-12-12T00:55:46.442Z,19.50
2018-12-12T00:58:15.224Z,18.57
2018-12-12T01:00:44.807Z,18.77
2018-12-12T01:03:13.628Z,10.80
2018-12-12T01:05:42.476Z,18.20
2018-12-12T01:08:11.306Z,18.13
2018-12-12T01:10:40.151Z,19.20
2018-12-12T01:13:08.980Z,19.80
2018-12-12T01:15:37.831Z,18.83
2018-12-12T01:18:06.656Z,18.33
2018-12-12T01:20:35.486Z,19.20
2018-12-12T01:23:04.319Z,18.23
2018-12-12T01:25:33.923Z,19.57
2018-12-12T01:28:02.764Z,20.90
2018-12-12T01:30:31.568Z,18.43
2018-12-12T01:33:00.392Z,18.80
2018-12-12T01:35:29.239Z,19.77
2018-12-12T01:37:58.074Z,23.75
2018-12-12T01:40:26.905Z,23.97
2018-12-12T01:42:55.933Z,32.67
2018-12-12T01:45:24.770Z,56.23
2018-12-12T01:47:53.611Z,52.73
2018-12-12T01:50:22.449Z,36.20
2018-12-12T01:52:51.281Z,42.17
2018-12-12T01:55:20.115Z,33.17
2018-12-12T01:57:48.947Z,28.07
2018-12-12T02:00:17.792Z,23.03
2018-12-12T02:02:46.630Z,20.60
2018-12-12T02:05:15.477Z,19.37
2018-12-12T02:07:44.317Z,20.50
2018-12-12T02:10:13.889Z,19.57
2018-12-12T02:12:42.724Z,19.47
2018-12-12T02:15:12.297Z,19.40
2018-12-12T02:17:41.128Z,22.27
2018-12-12T02:20:10.714Z,22.33
2018-12-12T02:22:39.557Z,27.53
2018-12-12T02:25:08.380Z,22.33
2018-12-12T02:27:37.202Z,20.20
2018-12-12T02:30:06.061Z,24.90
2018-12-12T02:32:34.887Z,24.65
2018-12-12T02:35:04.463Z,22.37
2018-12-12T02:37:33.288Z,24.33
2018-12-12T02:40:02.118Z,22.07
2018-12-12T02:42:30.960Z,22.13
2018-12-12T02:45:00.537Z,21.60
2018-12-12T02:47:29.371Z,21.77
2018-12-12T02:49:58.202Z,21.37
2018-12-12T02:52:28.087Z,21.57
2018-12-12T02:54:56.841Z,20.80
2018-12-12T02:57:26.422Z,24.75
2018-12-12T02:59:55.255Z,23.77
2018-12-12T03:02:24.113Z,20.77
2018-12-12T03:04:52.940Z,20.40
2018-12-12T03:07:21.779Z,21.00
2018-12-12T03:09:50.613Z,21.40
2018-12-12T03:12:19.452Z,20.70
2018-12-12T03:14:48.283Z,21.63
2018-12-12T03:17:17.862Z,21.17
2018-12-12T03:19:46.691Z,20.47
2018-12-12T03:22:15.541Z,21.00
2018-12-12T03:24:44.377Z,21.10
2018-12-12T03:27:13.975Z,21.93
2018-12-12T03:29:42.837Z,24.27
2018-12-12T03:32:11.694Z,24.10
2018-12-12T03:34:40.541Z,23.20
2018-12-12T03:37:09.398Z,23.37
2018-12-12T03:39:38.261Z,24.55
2018-12-12T03:42:07.096Z,22.33
2018-12-12T03:44:35.939Z,22.83
2018-12-12T03:47:04.783Z,22.13
2018-12-12T03:49:33.626Z,22.40
2018-12-12T03:52:02.469Z,25.00
2018-12-12T03:54:31.302Z,22.33
2018-12-12T03:57:00.171Z,21.30
2018-12-12T03:59:28.986Z,22.33
2018-12-12T04:01:57.810Z,17.33
2018-12-12T04:04:26.657Z,21.27
2018-12-12T04:06:55.498Z,24.17
2018-12-12T04:09:25.082Z,23.33
2018-12-12T04:11:53.924Z,21.13
2018-12-12T04:14:22.756Z,20.00
2018-12-12T04:16:51.598Z,20.13
2018-12-12T04:19:20.477Z,21.57
2018-12-12T04:21:49.282Z,19.60
2018-12-12T04:24:18.174Z,23.20
2018-12-12T04:26:47.722Z,21.97
2018-12-12T04:29:16.557Z,24.27
2018-12-12T04:31:45.394Z,21.03
2018-12-12T04:34:14.242Z,20.60
2018-12-12T04:36:43.084Z,21.63
2018-12-12T04:39:11.922Z,20.03
2018-12-12T04:41:40.759Z,20.47
2018-12-12T04:44:09.601Z,21.37
2018-12-12T04:46:38.452Z,21.23
2018-12-12T04:49:07.883Z,20.77
2018-12-12T04:51:36.728Z,23.52
2018-12-12T04:54:05.585Z,21.73
2018-12-12T04:56:34.426Z,22.03
2018-12-12T04:59:03.285Z,19.73
2018-12-12T05:01:32.154Z,20.93
2018-12-12T05:04:00.987Z,20.63
2018-12-12T05:06:29.841Z,20.40
2018-12-12T05:08:58.697Z,22.30
2018-12-12T05:11:27.545Z,21.00
2018-12-12T05:13:56.397Z,20.23
2018-12-12T05:16:25.245Z,21.63
2018-12-12T05:18:54.844Z,21.33
2018-12-12T05:21:23.705Z,23.20
2018-12-12T05:23:52.563Z,23.10
2018-12-12T05:26:21.412Z,21.67
2018-12-12T05:28:50.261Z,21.13
2018-12-12T05:31:19.110Z,21.40
2018-12-12T05:33:47.960Z,22.40
2018-12-12T05:36:16.813Z,21.20
2018-12-12T05:38:45.665Z,20.93
2018-12-12T05:41:15.252Z,20.40
2018-12-12T05:43:44.100Z,24.17
2018-12-12T05:46:12.947Z,21.33
2018-12-12T05:48:42.557Z,20.80
2018-12-12T05:51:11.400Z,23.27
2018-12-12T05:53:40.271Z,22.03
2018-12-12T05:56:14.173Z,21.90
2018-12-12T05:58:37.978Z,22.13
2018-12-12T06:01:06.816Z,22.50
2018-12-12T06:03:36.399Z,21.67
2018-12-12T06:06:05.257Z,22.13
2018-12-12T06:08:34.112Z,22.10
2018-12-12T06:11:02.970Z,22.30
2018-12-12T06:13:31.848Z,23.17
2018-12-12T06:16:00.742Z,24.63
2018-12-12T06:18:29.612Z,23.93
2018-12-12T06:20:58.458Z,23.63
2018-12-12T06:23:27.310Z,23.90
2018-12-12T06:25:56.180Z,118.13
2018-12-12T06:28:25.019Z,31.23
2018-12-12T06:30:54.628Z,25.65
2018-12-12T06:33:23.477Z,23.20
2018-12-12T06:35:52.366Z,22.27
2018-12-12T06:38:21.189Z,20.97
2018-12-12T06:40:50.074Z,22.77
2018-12-12T06:43:19.674Z,23.07
2018-12-12T06:45:49.261Z,23.03
2018-12-12T06:49:13.240Z,22.27
2018-12-12T06:51:42.041Z,22.77
2018-12-12T06:54:10.878Z,21.30
2018-12-12T06:56:39.731Z,17.13
2018-12-12T06:59:09.314Z,23.00
2018-12-12T07:01:38.149Z,24.93
2018-12-12T07:04:06.990Z,23.07
2018-12-12T07:06:35.832Z,22.00
2018-12-12T07:09:04.665Z,22.03
2018-12-12T07:11:33.497Z,23.60
2018-12-12T07:14:02.345Z,23.00
2018-12-12T07:16:31.193Z,24.57
2018-12-12T07:19:00.076Z,23.03
2018-12-12T07:21:28.864Z,24.77
2018-12-12T07:23:57.702Z,22.40
2018-12-12T07:26:26.567Z,24.23
2018-12-12T07:28:55.411Z,23.10
2018-12-12T07:31:24.259Z,23.00
2018-12-12T07:33:53.126Z,21.40
2018-12-12T07:36:21.977Z,25.88
2018-12-12T07:38:50.828Z,22.70
2018-12-12T07:41:19.661Z,22.63
2018-12-12T07:43:48.551Z,24.00
2018-12-12T07:46:17.380Z,22.37
2018-12-12T07:48:46.231Z,23.57
2018-12-12T07:51:15.120Z,21.63
2018-12-12T07:53:43.932Z,22.10
2018-12-12T07:56:12.768Z,21.17
2018-12-12T07:58:41.637Z,24.63
2018-12-12T08:01:10.480Z,27.27
2018-12-12T08:03:39.318Z,26.43
2018-12-12T08:06:08.161Z,26.67
2018-12-12T08:08:36.997Z,25.13
2018-12-12T08:11:05.843Z,26.70
2018-12-12T08:13:34.672Z,25.87
2018-12-12T08:16:03.507Z,24.87
2018-12-12T08:18:33.085Z,24.27
2018-12-12T08:21:01.928Z,25.53
2018-12-12T08:23:30.761Z,24.10
2018-12-12T08:25:59.617Z,25.50
2018-12-12T08:28:28.454Z,25.27
2018-12-12T08:30:58.043Z,23.20
2018-12-12T08:33:26.899Z,28.40
2018-12-12T08:35:55.739Z,25.27
2018-12-12T08:38:24.607Z,26.73
2018-12-12T08:40:53.455Z,28.15
2018-12-12T08:43:22.298Z,25.70
2018-12-12T08:45:51.181Z,24.13
2018-12-12T08:48:19.990Z,24.57
2018-12-12T08:50:49.573Z,26.52
2018-12-12T08:53:18.444Z,25.87
2018-12-12T08:55:47.289Z,26.33
2018-12-12T08:58:16.139Z,24.13
2018-12-12T09:00:44.993Z,24.20
2018-12-12T09:03:17.511Z,25.23
2018-12-12T09:05:42.676Z,23.97
2018-12-12T09:08:11.516Z,23.63
2018-12-12T09:10:41.098Z,24.23
2018-12-12T09:13:09.977Z,24.40
2018-12-12T09:15:38.809Z,22.57
2018-12-12T09:18:07.689Z,23.63
2018-12-12T09:20:36.501Z,24.93
2018-12-12T09:23:05.347Z,24.00
2018-12-12T09:25:34.186Z,24.90
2018-12-12T09:28:03.069Z,24.27
2018-12-12T09:30:31.905Z,24.97
2018-12-12T09:33:00.745Z,25.37
2018-12-12T09:35:29.581Z,23.67
2018-12-12T09:37:58.422Z,24.13
2018-12-12T09:40:27.317Z,24.43
2018-12-12T09:42:56.123Z,25.03
2018-12-12T09:45:24.967Z,23.53
2018-12-12T09:47:54.541Z,24.80
2018-12-12T09:50:23.378Z,25.37
2018-12-12T09:52:52.213Z,23.53
2018-12-12T09:55:21.071Z,23.93
2018-12-12T09:57:49.914Z,27.37
2018-12-12T10:00:18.756Z,25.23
2018-12-12T10:02:47.662Z,27.50
2018-12-12T10:05:16.469Z,24.50
2018-12-12T10:07:45.288Z,24.43
2018-12-12T10:10:14.149Z,25.50
2018-12-12T10:12:43.005Z,25.17
2018-12-12T10:15:11.848Z,24.97
2018-12-12T10:17:41.425Z,25.60
2018-12-12T10:20:10.283Z,26.50
2018-12-12T10:22:39.116Z,26.60
2018-12-12T10:25:07.952Z,27.30
2018-12-12T10:27:36.790Z,26.97
2018-12-12T10:30:05.647Z,25.60
2018-12-12T10:32:34.489Z,25.57
2018-12-12T10:35:03.336Z,25.63
2018-12-12T10:37:32.176Z,26.10
2018-12-12T10:40:01.026Z,25.93
2018-12-12T10:42:29.854Z,23.70
2018-12-12T10:44:58.696Z,21.63
2018-12-12T10:47:27.533Z,21.77
2018-12-12T10:49:56.377Z,20.20
2018-12-12T10:52:25.206Z,21.03
2018-12-12T10:54:54.037Z,22.40
2018-12-12T10:57:22.873Z,21.73
2018-12-12T10:59:52.453Z,20.53
2018-12-12T11:02:26.783Z,22.77
2018-12-12T11:04:56.356Z,20.60
2018-12-12T11:07:25.365Z,22.70
2018-12-12T11:09:54.207Z,22.17
2018-12-12T11:12:23.050Z,22.47
2018-12-12T11:14:51.908Z,23.63
2018-12-12T11:17:20.784Z,22.87
2018-12-12T11:19:49.633Z,21.47
2018-12-12T11:22:18.473Z,23.00
2018-12-12T11:24:47.310Z,19.13
2018-12-12T11:27:16.153Z,18.73
2018-12-12T11:29:45.002Z,17.37
2018-12-12T11:32:14.590Z,17.03
2018-12-12T11:34:43.438Z,16.93
2018-12-12T11:37:12.286Z,16.20
2018-12-12T11:39:41.136Z,10.33
2018-12-12T11:42:09.995Z,10.20
2018-12-12T11:44:38.872Z,11.30
2018-12-12T11:47:07.686Z,10.97
2018-12-12T11:49:36.547Z,10.50
2018-12-12T11:52:05.520Z,10.93
2018-12-12T11:54:34.237Z,10.33
2018-12-12T11:57:03.073Z,9.20
2018-12-12T11:59:31.929Z,8.83
2018-12-12T12:02:00.770Z,10.17
2018-12-12T12:04:30.371Z,10.07
2018-12-12T12:06:59.225Z,10.95
2018-12-12T12:09:28.062Z,10.57
2018-12-12T12:11:57.707Z,9.40
2018-12-12T12:14:26.506Z,9.53
2018-12-12T12:16:55.350Z,10.10
2018-12-12T12:19:24.924Z,9.83
2018-12-12T12:21:53.815Z,10.10
2018-12-12T12:24:22.619Z,10.37
2018-12-12T12:26:51.464Z,10.47
2018-12-12T12:29:20.313Z,11.07
2018-12-12T12:31:49.161Z,10.57
2018-12-12T12:34:18.013Z,12.10
2018-12-12T12:36:46.861Z,10.60
2018-12-12T12:39:15.691Z,11.03
2018-12-12T12:41:44.535Z,10.80
2018-12-12T12:44:13.404Z,11.23
2018-12-12T12:46:42.258Z,11.03
2018-12-12T12:49:11.092Z,11.57
2018-12-12T12:51:39.938Z,10.90
2018-12-12T12:54:08.792Z,10.53
2018-12-12T12:56:38.388Z,11.13
2018-12-12T12:59:07.239Z,10.17
2018-12-12T13:01:36.077Z,10.27
2018-12-12T13:04:09.686Z,10.50
2018-12-12T13:06:34.600Z,11.50
2018-12-12T13:09:03.453Z,11.70
2018-12-12T13:11:32.309Z,10.83
2018-12-12T13:14:01.174Z,12.57
2018-12-12T13:16:30.005Z,10.63
2018-12-12T13:18:58.864Z,11.27
2018-12-12T13:21:27.713Z,11.50
2018-12-12T13:23:56.555Z,10.23
2018-12-12T13:26:25.399Z,11.40
2018-12-12T13:28:54.252Z,11.30
2018-12-12T13:31:23.113Z,10.87
2018-12-12T13:33:51.971Z,10.70
2018-12-12T13:36:20.821Z,11.17
2018-12-12T13:38:49.674Z,11.10
2018-12-12T13:41:18.547Z,10.77
2018-12-12T13:43:47.393Z,10.77
2018-12-12T13:46:16.245Z,11.57
2018-12-12T13:48:45.101Z,10.90
2018-12-12T13:51:14.684Z,10.40
2018-12-12T13:53:43.633Z,10.60
2018-12-12T13:56:12.454Z,13.40
2018-12-12T13:58:41.339Z,10.47
2018-12-12T14:01:10.159Z,11.20
2018-12-12T14:03:39.812Z,11.07
2018-12-12T14:06:08.645Z,12.37
2018-12-12T14:08:37.507Z,11.90
2018-12-12T14:11:06.355Z,12.25
2018-12-12T14:13:35.200Z,11.60
2018-12-12T14:16:04.049Z,10.97
2018-12-12T14:18:32.896Z,10.23
2018-12-12T14:21:01.763Z,10.57
2018-12-12T14:23:30.630Z,11.50
2018-12-12T14:25:59.469Z,10.60
2018-12-12T14:28:28.329Z,9.43
2018-12-12T14:30:57.163Z,10.35
2018-12-12T14:33:26.025Z,9.17
2018-12-12T14:36:00.940Z,9.07
2018-12-12T14:38:23.722Z,10.90
2018-12-12T14:40:53.343Z,9.10
2018-12-12T14:43:22.188Z,10.30
2018-12-12T14:45:51.041Z,8.57
2018-12-12T14:48:19.908Z,8.77
2018-12-12T14:50:48.821Z,8.70
2018-12-12T14:53:17.631Z,8.97
2018-12-12T14:55:46.506Z,9.37
2018-12-12T14:58:15.311Z,7.00
2018-12-12T15:00:44.213Z,9.50
2018-12-12T15:03:13.742Z,10.07
2018-12-12T15:05:43.338Z,10.40
2018-12-12T15:08:12.966Z,10.30
2018-12-12T15:10:41.761Z,10.40
2018-12-12T15:13:10.609Z,10.13
2018-12-12T15:15:39.449Z,11.03
2018-12-12T15:18:08.294Z,10.23
2018-12-12T15:20:37.894Z,10.53
2018-12-12T15:23:07.488Z,11.40
2018-12-12T15:25:36.335Z,9.47
2018-12-12T15:28:05.171Z,10.10
2018-12-12T15:30:33.993Z,8.93
2018-12-12T15:33:02.841Z,9.97
2018-12-12T15:35:31.692Z,10.15
2018-12-12T15:38:01.414Z,8.83
2018-12-12T15:40:29.343Z,9.20
2018-12-12T15:42:58.175Z,9.00
2018-12-12T15:45:27.012Z,8.33
2018-12-12T15:47:55.842Z,8.63
2018-12-12T15:50:24.679Z,8.93
2018-12-12T15:52:53.516Z,9.27
2018-12-12T15:55:22.359Z,8.73
2018-12-12T15:57:51.198Z,8.40
2018-12-12T16:00:20.034Z,9.20
2018-12-12T16:02:48.889Z,7.97
2018-12-12T16:05:17.724Z,9.82
2018-12-12T16:07:47.150Z,8.23
2018-12-12T16:10:16.733Z,9.13
2018-12-12T16:12:45.559Z,8.10
2018-12-12T16:15:14.398Z,8.30
2018-12-12T16:17:43.218Z,6.20
2018-12-12T16:20:12.824Z,6.57
2018-12-12T16:22:41.750Z,7.53
2018-12-12T16:25:10.546Z,8.80
2018-12-12T16:27:39.363Z,8.47
2018-12-12T16:30:08.220Z,8.43
2018-12-12T16:32:37.067Z,8.23
2018-12-12T16:35:06.645Z,8.33
2018-12-12T16:37:35.469Z,8.37
2018-12-12T16:40:05.061Z,7.93
2018-12-12T16:42:33.925Z,8.90
2018-12-12T16:45:02.740Z,7.80
2018-12-12T16:47:32.348Z,7.27
2018-12-12T16:50:01.205Z,8.20
2018-12-12T16:52:30.040Z,8.30
2018-12-12T16:54:58.893Z,8.10
2018-12-12T16:57:27.741Z,7.73
2018-12-12T16:59:56.580Z,8.20
2018-12-12T17:02:25.426Z,7.17
2018-12-12T17:04:54.262Z,8.03
2018-12-12T17:07:23.106Z,7.67
2018-12-12T17:09:51.941Z,5.97
2018-12-12T17:12:20.816Z,7.20
2018-12-12T17:14:49.639Z,8.63
2018-12-12T17:17:19.258Z,7.97
2018-12-12T17:19:48.062Z,8.10
2018-12-12T17:22:16.893Z,7.60
2018-12-12T17:24:45.753Z,7.67
2018-12-12T17:27:14.576Z,8.43
2018-12-12T17:29:43.406Z,7.33
2018-12-12T17:32:12.246Z,7.30
2018-12-12T17:34:41.081Z,6.90
2018-12-12T17:37:09.902Z,6.20
2018-12-12T17:39:38.729Z,6.70
2018-12-12T17:42:07.566Z,6.97
2018-12-12T17:44:36.393Z,7.60
2018-12-12T17:47:05.831Z,7.00
2018-12-12T17:49:34.653Z,7.87
2018-12-12T17:52:03.490Z,7.30
2018-12-12T17:54:33.067Z,7.80
2018-12-12T17:57:01.902Z,7.80
2018-12-12T17:59:30.758Z,7.10
2018-12-12T18:01:59.593Z,7.13
2018-12-12T18:04:28.512Z,7.47
2018-12-12T18:06:57.260Z,7.77
2018-12-12T18:09:26.102Z,5.83
2018-12-12T18:11:54.925Z,8.17
2018-12-12T18:14:24.512Z,7.23
2018-12-12T18:16:53.369Z,7.07
2018-12-12T18:19:22.219Z,7.70
2018-12-12T18:21:51.078Z,7.37
2018-12-12T18:24:19.882Z,7.57
2018-12-12T18:26:48.732Z,9.10
2018-12-12T18:29:17.564Z,9.77
2018-12-12T18:31:47.142Z,8.03
2018-12-12T18:34:15.972Z,7.32
2018-12-12T18:36:44.803Z,6.60
2018-12-12T18:39:13.631Z,6.10
2018-12-12T18:41:43.206Z,5.90
2018-12-12T18:44:12.045Z,6.00
2018-12-12T18:46:40.876Z,6.30
2018-12-12T18:49:09.724Z,5.60
2018-12-12T18:51:38.552Z,6.27
2018-12-12T18:54:07.392Z,6.90
2018-12-12T18:56:36.985Z,7.83
2018-12-12T18:59:05.847Z,7.87
2018-12-12T19:01:34.693Z,6.33
2018-12-12T19:04:03.515Z,6.07
2018-12-12T19:06:32.355Z,7.27
2018-12-12T19:09:01.939Z,7.20
2018-12-12T19:11:31.365Z,6.33
2018-12-12T19:14:00.192Z,6.40
2018-12-12T19:16:29.034Z,7.10
2018-12-12T19:18:58.647Z,6.73
2018-12-12T19:21:28.227Z,6.82
2018-12-12T19:23:57.049Z,6.75
2018-12-12T19:26:25.880Z,6.80
2018-12-12T19:28:54.724Z,5.50
2018-12-12T19:31:23.576Z,6.07
2018-12-12T19:33:52.419Z,5.40
2018-12-12T19:36:21.272Z,6.62
2018-12-12T19:38:50.886Z,5.50
2018-12-12T19:41:20.508Z,5.03
2018-12-12T19:43:49.351Z,5.90
2018-12-12T19:46:18.182Z,5.07
2018-12-12T19:48:47.764Z,4.80
2018-12-12T19:51:16.609Z,5.10
2018-12-12T19:53:45.444Z,5.35
2018-12-12T19:56:14.273Z,4.90
2018-12-12T19:58:43.118Z,4.97
2018-12-12T20:01:11.944Z,4.93
2018-12-12T20:03:40.797Z,5.00
2018-12-12T20:06:09.637Z,4.73
2018-12-12T20:08:38.468Z,5.97
2018-12-12T20:11:07.312Z,5.27
2018-12-12T20:13:36.146Z,6.12
2018-12-12T20:16:05.031Z,5.33
2018-12-12T20:18:33.863Z,6.20
2018-12-12T20:21:02.718Z,5.90
2018-12-12T20:23:31.546Z,5.43
2018-12-12T20:26:00.409Z,6.07
2018-12-12T20:28:30.027Z,5.70
2018-12-12T20:30:58.885Z,5.83
2018-12-12T20:33:28.456Z,6.03
2018-12-12T20:35:57.277Z,8.17
2018-12-12T20:38:26.120Z,7.60
2018-12-12T20:40:54.989Z,6.90
2018-12-12T20:43:23.788Z,6.53
2018-12-12T20:45:52.619Z,5.70
2018-12-12T20:48:21.451Z,6.23
2018-12-12T20:50:51.050Z,5.90
2018-12-12T20:53:19.875Z,6.33
2018-12-12T20:55:48.758Z,6.07
2018-12-12T20:58:18.260Z,6.03
2018-12-12T21:00:47.044Z,5.50
2018-12-12T21:03:15.879Z,5.33
2018-12-12T21:05:44.704Z,5.97
2018-12-12T21:08:13.544Z,6.10
2018-12-12T21:10:42.384Z,6.40
2018-12-12T21:13:11.988Z,6.20
2018-12-12T21:15:41.586Z,6.30
2018-12-12T21:18:10.429Z,5.93
2018-12-12T21:20:39.267Z,6.30
2018-12-12T21:23:08.874Z,6.30
2018-12-12T21:25:38.459Z,6.83
2018-12-12T21:28:07.295Z,5.97
2018-12-12T21:30:36.887Z,5.87
2018-12-12T21:33:05.722Z,5.60
2018-12-12T21:35:34.648Z,5.50
2018-12-12T21:38:03.442Z,5.27
2018-12-12T21:40:32.329Z,5.30
2018-12-12T21:43:01.293Z,5.23
2018-12-12T21:45:30.119Z,5.50
2018-12-12T21:47:58.968Z,5.30
2018-12-12T21:50:27.849Z,5.10
2018-12-12T21:52:56.675Z,4.93
2018-12-12T21:55:25.507Z,5.37
2018-12-12T21:57:54.349Z,5.33
2018-12-12T22:00:23.174Z,5.00
2018-12-12T22:02:52.049Z,5.30
2018-12-12T22:05:20.846Z,5.53
2018-12-12T22:07:50.426Z,5.23
2018-12-12T22:10:19.268Z,5.40
2018-12-12T22:12:48.124Z,5.50
2018-12-12T22:15:17.711Z,5.47
2018-12-12T22:17:46.561Z,5.72
2018-12-12T22:20:15.397Z,5.93
2018-12-12T22:22:44.244Z,5.60
2018-12-12T22:25:13.817Z,5.65
2018-12-12T22:27:43.390Z,5.63
2018-12-12T22:30:12.241Z,6.10
2018-12-12T22:32:41.092Z,5.20
2018-12-12T22:35:10.679Z,5.93
2018-12-12T22:39:11.538Z,6.22
2018-12-12T22:41:40.365Z,6.03
2018-12-12T22:44:09.212Z,6.30
2018-12-12T22:46:38.047Z,6.10
2018-12-12T22:49:06.885Z,6.00
2018-12-12T22:51:36.311Z,6.50
2018-12-12T22:54:05.879Z,6.17
2018-12-12T22:56:34.722Z,6.03
2018-12-12T22:59:03.565Z,5.70
2018-12-12T23:01:32.400Z,5.63
2018-12-12T23:04:01.235Z,6.22
2018-12-12T23:06:30.083Z,5.50
2018-12-12T23:08:58.926Z,5.43
2018-12-12T23:11:27.770Z,4.90
2018-12-12T23:13:56.592Z,5.55
2018-12-12T23:16:25.428Z,5.40
2018-12-12T23:18:54.270Z,5.23
2018-12-12T23:21:23.106Z,5.30
2018-12-12T23:23:51.934Z,5.23
2018-12-12T23:26:20.753Z,5.20
2018-12-12T23:28:49.599Z,5.03
2018-12-12T23:31:18.431Z,5.95
2018-12-12T23:33:47.297Z,5.50
2018-12-12T23:36:16.127Z,6.07
2018-12-12T23:38:45.717Z,5.33
2018-12-12T23:41:15.288Z,5.77
2018-12-12T23:43:44.118Z,5.67
2018-12-12T23:46:13.708Z,6.50
2018-12-12T23:48:42.552Z,6.80
2018-12-12T23:51:11.391Z,8.60
2018-12-12T23:53:40.249Z,8.13
2018-12-12T23:56:09.092Z,9.00
2018-12-12T23:58:37.931Z,8.37
